createdAt,value
2017-10-17T00:00:14.420Z,30.30
2017-10-17T00:02:41.865Z,28.30
2017-10-17T00:05:10.072Z,24.57
2017-10-17T00:07:37.503Z,23.60
2017-10-17T00:10:05.715Z,23.90
2017-10-17T00:12:33.150Z,28.90
2017-10-17T00:15:00.598Z,20.20
2017-10-17T00:17:28.037Z,24.20
2017-10-17T00:19:56.249Z,18.80
2017-10-17T00:22:23.693Z,23.63
2017-10-17T00:24:53.059Z,26.00
2017-10-17T00:27:20.490Z,21.77
2017-10-17T00:29:47.949Z,19.50
2017-10-17T00:32:15.384Z,21.13
2017-10-17T00:34:42.831Z,21.63
2017-10-17T00:37:10.248Z,17.80
2017-10-17T00:39:38.452Z,20.10
2017-10-17T00:42:05.889Z,25.50
2017-10-17T00:44:34.090Z,22.47
2017-10-17T00:47:01.571Z,23.13
2017-10-17T00:49:29.042Z,21.17
2017-10-17T00:51:56.452Z,23.23
2017-10-17T00:54:23.889Z,27.80
2017-10-17T00:56:52.113Z,26.90
2017-10-17T00:59:19.540Z,20.77
2017-10-17T01:01:46.974Z,18.87
2017-10-17T01:04:15.194Z,22.40
2017-10-17T01:06:42.617Z,18.10
2017-10-17T01:09:10.830Z,22.47
2017-10-17T01:11:38.260Z,17.50
2017-10-17T01:14:05.706Z,18.77
2017-10-17T01:16:33.909Z,19.20
2017-10-17T01:19:01.362Z,23.53
2017-10-17T01:21:28.794Z,18.13
2017-10-17T01:24:01.453Z,17.70
2017-10-17T01:26:29.663Z,16.47
2017-10-17T01:28:57.829Z,38.83
2017-10-17T01:31:25.255Z,24.60
2017-10-17T01:33:52.701Z,19.43
2017-10-17T01:36:20.128Z,20.50
2017-10-17T01:38:48.517Z,21.57
2017-10-17T01:41:15.954Z,18.47
2017-10-17T01:43:46.137Z,17.70
2017-10-17T01:46:25.064Z,18.93
2017-10-17T01:52:01.490Z,22.30
2017-10-17T01:54:31.469Z,18.83
2017-10-17T01:56:59.669Z,21.07
2017-10-17T01:59:33.714Z,20.00
2017-10-17T02:02:01.141Z,21.50
2017-10-17T02:04:28.575Z,27.63
2017-10-17T02:06:56.784Z,22.67
2017-10-17T02:09:24.221Z,19.97
2017-10-17T02:11:51.649Z,18.60
2017-10-17T02:14:19.867Z,22.93
2017-10-17T02:16:47.303Z,19.60
2017-10-17T02:19:17.209Z,27.13
2017-10-17T02:21:46.094Z,27.87
2017-10-17T02:24:15.194Z,20.87
2017-10-17T02:26:43.407Z,27.10
2017-10-17T02:29:14.459Z,26.70
2017-10-17T02:31:41.906Z,27.53
2017-10-17T02:34:11.972Z,30.17
2017-10-17T02:36:40.187Z,44.90
2017-10-17T02:39:07.610Z,37.97
2017-10-17T02:41:35.818Z,56.73
2017-10-17T02:44:03.258Z,40.77
2017-10-17T02:46:34.359Z,107.27
2017-10-17T02:49:06.542Z,41.90
2017-10-17T02:51:33.973Z,36.03
2017-10-17T02:54:01.397Z,57.07
2017-10-17T02:56:28.841Z,46.33
2017-10-17T02:58:56.272Z,50.57
2017-10-17T03:01:37.179Z,33.93
2017-10-17T03:04:04.609Z,41.50
2017-10-17T03:06:32.818Z,50.67
2017-10-17T03:09:00.249Z,35.87
2017-10-17T03:11:27.700Z,30.03
2017-10-17T03:13:57.635Z,34.03
2017-10-17T03:16:25.069Z,26.67
2017-10-17T03:18:53.268Z,36.67
2017-10-17T03:21:22.285Z,26.77
2017-10-17T03:24:04.589Z,37.77
2017-10-17T03:26:32.035Z,45.27
2017-10-17T03:28:59.449Z,44.53
2017-10-17T03:31:27.665Z,45.43
2017-10-17T03:34:06.554Z,37.80
2017-10-17T03:36:44.653Z,47.40
2017-10-17T03:39:12.857Z,39.00
2017-10-17T03:41:40.298Z,34.37
2017-10-17T03:44:24.301Z,38.07
2017-10-17T03:46:51.750Z,40.60
2017-10-17T03:49:24.682Z,42.00
2017-10-17T03:51:52.894Z,33.30
2017-10-17T03:54:21.120Z,30.60
2017-10-17T03:56:49.341Z,36.93
2017-10-17T03:59:20.350Z,33.13
2017-10-17T04:01:48.561Z,28.13
2017-10-17T04:04:25.573Z,28.07
2017-10-17T04:07:04.481Z,34.43
2017-10-17T04:09:33.690Z,36.60
2017-10-17T04:12:01.130Z,45.20
2017-10-17T04:14:32.083Z,33.70
2017-10-17T04:17:14.975Z,39.63
2017-10-17T04:19:44.208Z,36.40
2017-10-17T04:25:10.190Z,30.30
2017-10-17T04:30:45.359Z,34.40
2017-10-17T04:33:16.157Z,37.87
2017-10-17T04:35:48.112Z,37.93
2017-10-17T04:38:15.556Z,36.23
2017-10-17T04:40:47.521Z,26.10
2017-10-17T04:43:40.561Z,25.60
2017-10-17T04:46:16.538Z,36.03
2017-10-17T04:49:03.571Z,39.63
2017-10-17T04:51:32.414Z,43.50
2017-10-17T04:54:01.474Z,34.23
2017-10-17T04:56:29.665Z,37.07
2017-10-17T05:02:29.130Z,33.40
2017-10-17T05:05:06.193Z,44.77
2017-10-17T05:07:37.161Z,34.57
2017-10-17T05:10:07.129Z,34.10
2017-10-17T05:12:37.389Z,48.90
2017-10-17T05:15:07.641Z,34.53
2017-10-17T05:17:42.878Z,41.30
2017-10-17T05:20:13.640Z,28.20
2017-10-17T05:22:51.733Z,32.47
2017-10-17T05:25:32.797Z,44.67
2017-10-17T05:28:06.769Z,34.30
2017-10-17T05:30:52.854Z,29.87
2017-10-17T05:33:31.050Z,39.97
2017-10-17T05:35:58.490Z,38.97
2017-10-17T05:38:26.706Z,37.60
2017-10-17T05:40:54.134Z,35.40
2017-10-17T05:43:25.075Z,39.87
2017-10-17T05:45:52.504Z,33.40
2017-10-17T05:48:21.605Z,36.10
2017-10-17T05:50:53.414Z,36.07
2017-10-17T05:53:20.852Z,45.27
2017-10-17T05:55:48.285Z,38.60
2017-10-17T05:58:16.492Z,41.47
2017-10-17T06:00:43.924Z,36.37
2017-10-17T06:03:11.354Z,48.30
2017-10-17T06:05:38.789Z,33.57
2017-10-17T06:08:06.222Z,26.10
2017-10-17T06:10:33.669Z,32.63
2017-10-17T06:13:01.097Z,36.30
2017-10-17T06:15:29.305Z,33.60
2017-10-17T06:17:56.746Z,41.57
2017-10-17T06:20:24.178Z,42.00
2017-10-17T06:22:52.373Z,43.00
2017-10-17T06:25:19.810Z,34.33
2017-10-17T06:27:48.005Z,45.97
2017-10-17T06:30:15.448Z,27.70
2017-10-17T06:32:43.649Z,30.07
2017-10-17T06:35:11.117Z,30.73
2017-10-17T06:37:38.549Z,25.83
2017-10-17T06:40:05.977Z,42.73
2017-10-17T06:42:33.433Z,36.70
2017-10-17T06:45:00.873Z,36.50
2017-10-17T06:47:28.313Z,49.60
2017-10-17T06:49:55.753Z,45.83
2017-10-17T06:52:23.199Z,45.00
2017-10-17T06:54:50.645Z,53.23
2017-10-17T06:57:18.853Z,48.10
2017-10-17T06:59:46.298Z,51.37
2017-10-17T07:02:13.737Z,48.50
2017-10-17T07:04:41.172Z,51.13
2017-10-17T07:07:09.397Z,52.73
2017-10-17T07:09:36.821Z,39.53
2017-10-17T07:12:04.261Z,45.57
2017-10-17T07:14:32.461Z,55.43
2017-10-17T07:16:59.906Z,46.27
2017-10-17T07:19:28.106Z,63.37
2017-10-17T07:21:55.550Z,34.00
2017-10-17T07:24:22.986Z,42.70
2017-10-17T07:26:51.196Z,43.33
2017-10-17T07:29:18.629Z,31.73
2017-10-17T07:31:46.076Z,36.33
2017-10-17T07:34:14.270Z,38.67
2017-10-17T07:36:41.714Z,31.70
2017-10-17T07:39:09.152Z,37.60
2017-10-17T07:41:36.589Z,31.13
2017-10-17T07:44:04.029Z,28.73
2017-10-17T07:46:31.466Z,30.67
2017-10-17T07:48:58.904Z,32.73
2017-10-17T07:51:26.352Z,28.07
2017-10-17T07:53:54.557Z,26.07
2017-10-17T07:56:22.000Z,23.40
2017-10-17T07:58:49.434Z,28.70
2017-10-17T08:01:17.645Z,25.57
2017-10-17T08:03:45.075Z,26.10
2017-10-17T08:06:12.546Z,23.20
2017-10-17T08:08:39.964Z,21.17
2017-10-17T08:11:08.174Z,23.70
2017-10-17T08:13:35.610Z,30.70
2017-10-17T08:16:04.805Z,25.00
2017-10-17T08:18:33.022Z,26.90
2017-10-17T08:21:00.461Z,30.57
2017-10-17T08:23:27.930Z,36.20
2017-10-17T08:25:55.373Z,26.10
2017-10-17T08:28:22.825Z,34.40
2017-10-17T08:30:50.267Z,27.20
2017-10-17T08:33:18.476Z,44.40
2017-10-17T08:35:45.909Z,36.07
2017-10-17T08:38:13.360Z,28.93
2017-10-17T08:40:41.565Z,21.87
2017-10-17T08:43:09.008Z,21.57
2017-10-17T08:45:36.454Z,18.87
2017-10-17T08:48:03.897Z,19.77
2017-10-17T08:50:32.110Z,17.73
2017-10-17T08:52:59.572Z,18.20
2017-10-17T08:55:27.009Z,21.50
2017-10-17T08:57:54.449Z,20.60
2017-10-17T09:00:22.649Z,23.93
2017-10-17T09:02:50.111Z,23.80
2017-10-17T09:05:17.566Z,26.30
2017-10-17T09:07:45.006Z,26.40
2017-10-17T09:10:12.441Z,17.90
2017-10-17T09:12:40.658Z,18.90
2017-10-17T09:15:08.097Z,16.67
2017-10-17T09:17:35.542Z,17.67
2017-10-17T09:20:03.746Z,15.57
2017-10-17T09:22:31.189Z,19.23
2017-10-17T09:24:58.627Z,18.27
2017-10-17T09:27:26.828Z,18.10
2017-10-17T09:29:54.259Z,14.80
2017-10-17T09:32:22.466Z,22.03
2017-10-17T09:34:49.905Z,18.53
2017-10-17T09:37:17.358Z,17.43
2017-10-17T09:39:44.790Z,19.63
2017-10-17T09:42:13.013Z,18.63
2017-10-17T09:44:40.440Z,19.83
2017-10-17T09:47:07.889Z,19.47
2017-10-17T09:49:36.092Z,28.03
2017-10-17T09:52:03.526Z,17.43
2017-10-17T09:54:31.731Z,16.37
2017-10-17T09:56:59.175Z,19.80
2017-10-17T09:59:26.600Z,19.63
2017-10-17T10:01:54.825Z,20.17
2017-10-17T10:04:22.262Z,23.40
2017-10-17T10:06:49.710Z,25.13
2017-10-17T10:09:17.140Z,22.30
2017-10-17T10:11:45.365Z,21.63
2017-10-17T10:14:12.810Z,20.67
2017-10-17T10:16:40.245Z,18.20
2017-10-17T10:19:08.453Z,22.93
2017-10-17T10:21:35.898Z,21.50
2017-10-17T10:24:03.330Z,23.43
2017-10-17T10:26:31.542Z,18.70
2017-10-17T10:28:58.985Z,26.07
2017-10-17T10:31:26.416Z,23.03
2017-10-17T10:33:54.634Z,18.03
2017-10-17T10:36:22.074Z,19.90
2017-10-17T10:38:49.538Z,22.30
2017-10-17T10:41:16.958Z,20.80
2017-10-17T10:43:45.176Z,18.37
2017-10-17T10:46:12.598Z,20.77
2017-10-17T10:48:40.813Z,20.13
2017-10-17T10:51:08.249Z,18.53
2017-10-17T10:53:35.688Z,22.93
2017-10-17T10:56:03.894Z,18.30
2017-10-17T10:58:31.338Z,17.37
2017-10-17T11:00:58.773Z,15.73
2017-10-17T11:03:26.985Z,20.40
2017-10-17T11:05:54.429Z,18.37
2017-10-17T11:08:21.895Z,26.33
2017-10-17T11:10:49.308Z,19.10
2017-10-17T11:13:17.513Z,17.00
2017-10-17T11:15:44.951Z,20.70
2017-10-17T11:18:13.159Z,24.77
2017-10-17T11:20:40.602Z,19.87
2017-10-17T11:23:08.049Z,16.47
2017-10-17T11:25:36.249Z,17.23
2017-10-17T11:28:03.693Z,16.60
2017-10-17T11:30:31.129Z,25.93
2017-10-17T11:32:59.338Z,21.13
2017-10-17T11:35:26.769Z,16.13
2017-10-17T11:37:54.209Z,18.60
2017-10-17T11:40:34.249Z,29.13
2017-10-17T11:43:13.570Z,19.43
2017-10-17T11:45:41.009Z,22.63
2017-10-17T11:48:08.458Z,19.30
2017-10-17T11:50:35.900Z,16.57
2017-10-17T11:53:03.337Z,19.10
2017-10-17T11:55:30.773Z,18.03
2017-10-17T11:57:58.982Z,17.77
2017-10-17T12:00:26.427Z,17.93
2017-10-17T12:02:53.865Z,19.63
2017-10-17T12:05:22.092Z,21.13
2017-10-17T12:07:49.540Z,18.67
2017-10-17T12:10:16.973Z,22.53
2017-10-17T12:12:44.425Z,19.37
2017-10-17T12:15:12.629Z,16.97
2017-10-17T12:17:40.073Z,18.20
2017-10-17T12:20:07.507Z,18.60
2017-10-17T12:22:35.719Z,25.57
2017-10-17T12:25:03.159Z,17.10
2017-10-17T12:27:30.601Z,20.70
2017-10-17T12:29:58.805Z,24.10
2017-10-17T12:32:26.256Z,20.40
2017-10-17T12:34:53.691Z,17.90
2017-10-17T12:37:21.902Z,21.23
2017-10-17T12:39:49.354Z,17.00
2017-10-17T12:42:16.801Z,12.20
2017-10-17T12:44:44.237Z,15.90
2017-10-17T12:47:11.682Z,15.23
2017-10-17T12:49:39.896Z,19.97
2017-10-17T12:52:07.338Z,17.33
2017-10-17T12:54:34.779Z,15.40
2017-10-17T12:57:02.986Z,14.93
2017-10-17T12:59:30.450Z,20.87
2017-10-17T13:01:57.877Z,17.03
2017-10-17T13:04:25.316Z,19.20
2017-10-17T13:06:52.757Z,14.73
2017-10-17T13:09:20.205Z,16.60
2017-10-17T13:11:47.640Z,13.83
2017-10-17T13:14:15.080Z,17.00
2017-10-17T13:16:42.533Z,14.80
2017-10-17T13:19:09.982Z,17.30
2017-10-17T13:21:37.423Z,15.53
2017-10-17T13:24:05.626Z,16.40
2017-10-17T13:26:33.066Z,16.97
2017-10-17T13:29:00.505Z,25.20
2017-10-17T13:31:28.719Z,14.47
2017-10-17T13:33:56.162Z,17.67
2017-10-17T13:36:23.593Z,15.57
2017-10-17T13:38:51.805Z,14.70
2017-10-17T13:41:19.245Z,18.20
2017-10-17T13:43:46.677Z,19.23
2017-10-17T13:46:14.878Z,17.47
2017-10-17T13:48:42.312Z,18.63
2017-10-17T13:51:10.523Z,17.63
2017-10-17T13:53:37.965Z,16.83
2017-10-17T13:56:05.402Z,14.23
2017-10-17T13:58:34.618Z,17.93
2017-10-17T14:01:02.053Z,17.03
2017-10-17T14:03:30.268Z,17.07
2017-10-17T14:05:57.708Z,16.07
2017-10-17T14:08:25.153Z,13.30
2017-10-17T14:10:53.355Z,13.57
2017-10-17T14:13:20.817Z,19.13
2017-10-17T14:15:48.271Z,18.30
2017-10-17T14:18:15.725Z,12.83
2017-10-17T14:20:43.140Z,13.33
2017-10-17T14:23:11.358Z,15.43
2017-10-17T14:25:38.798Z,15.40
2017-10-17T14:28:06.252Z,14.93
2017-10-17T14:30:33.692Z,22.97
2017-10-17T14:33:01.903Z,13.90
2017-10-17T14:35:29.342Z,20.03
2017-10-17T14:37:56.781Z,19.37
2017-10-17T14:40:24.989Z,17.43
2017-10-17T14:42:52.440Z,18.47
2017-10-17T14:45:19.869Z,13.50
2017-10-17T14:47:48.080Z,12.80
2017-10-17T14:50:15.521Z,17.83
2017-10-17T14:52:42.973Z,13.93
2017-10-17T14:55:10.402Z,23.43
2017-10-17T14:57:37.837Z,18.43
2017-10-17T15:00:05.290Z,19.73
2017-10-17T15:02:32.738Z,16.20
2017-10-17T15:05:00.185Z,31.73
2017-10-17T15:07:27.622Z,21.30
2017-10-17T15:09:55.064Z,26.00
2017-10-17T15:12:22.503Z,17.43
2017-10-17T15:14:50.716Z,19.23
2017-10-17T15:17:18.154Z,18.97
2017-10-17T15:19:45.601Z,18.73
2017-10-17T15:22:13.813Z,16.73
2017-10-17T15:24:41.257Z,13.70
2017-10-17T15:27:08.702Z,12.50
2017-10-17T15:29:36.145Z,14.03
2017-10-17T15:32:04.370Z,17.47
2017-10-17T15:34:31.814Z,19.33
2017-10-17T15:36:59.253Z,13.97
2017-10-17T15:39:26.702Z,13.43
2017-10-17T15:41:55.052Z,17.90
2017-10-17T15:44:22.498Z,21.43
2017-10-17T15:46:49.933Z,18.50
2017-10-17T15:49:17.388Z,16.40
2017-10-17T15:51:44.821Z,19.23
2017-10-17T15:54:12.305Z,15.60
2017-10-17T15:56:39.733Z,20.07
2017-10-17T15:59:07.196Z,20.13
2017-10-17T16:01:34.637Z,15.47
2017-10-17T16:04:02.073Z,15.70
2017-10-17T16:06:30.287Z,17.87
2017-10-17T16:08:57.730Z,20.57
2017-10-17T16:11:25.170Z,21.60
2017-10-17T16:13:53.382Z,24.93
2017-10-17T16:16:20.825Z,17.73
2017-10-17T16:18:48.282Z,22.03
2017-10-17T16:21:15.713Z,23.10
2017-10-17T16:23:43.925Z,20.50
2017-10-17T16:26:11.366Z,20.40
2017-10-17T16:28:38.808Z,15.77
2017-10-17T16:31:07.012Z,16.53
2017-10-17T16:33:34.472Z,17.07
2017-10-17T16:36:01.912Z,17.07
2017-10-17T16:38:29.365Z,20.67
2017-10-17T16:40:56.797Z,19.53
2017-10-17T16:43:25.017Z,21.30
2017-10-17T16:45:52.457Z,20.23
2017-10-17T16:48:19.930Z,20.10
2017-10-17T16:50:47.370Z,16.43
2017-10-17T16:53:14.823Z,20.87
2017-10-17T16:55:42.258Z,20.30
2017-10-17T16:58:10.482Z,16.17
2017-10-17T17:00:37.918Z,20.43
2017-10-17T17:03:05.350Z,21.40
2017-10-17T17:05:33.568Z,17.27
2017-10-17T17:08:01.009Z,26.77
2017-10-17T17:10:28.444Z,20.80
2017-10-17T17:12:56.664Z,17.57
2017-10-17T17:15:24.097Z,21.10
2017-10-17T17:17:51.534Z,21.07
2017-10-17T17:20:19.749Z,21.33
2017-10-17T17:22:47.185Z,24.03
2017-10-17T17:25:14.629Z,19.23
2017-10-17T17:27:42.063Z,23.43
2017-10-17T17:30:09.516Z,20.30
2017-10-17T17:32:36.942Z,21.80
2017-10-17T17:35:04.397Z,16.80
2017-10-17T17:37:31.832Z,25.00
2017-10-17T17:39:59.303Z,18.87
2017-10-17T17:42:26.713Z,21.57
2017-10-17T17:44:55.330Z,25.93
2017-10-17T17:47:22.745Z,18.87
2017-10-17T17:49:50.964Z,21.47
2017-10-17T17:52:18.398Z,27.50
2017-10-17T17:54:45.837Z,25.87
2017-10-17T17:57:14.053Z,20.80
2017-10-17T17:59:41.496Z,21.80
2017-10-17T18:02:08.929Z,24.87
2017-10-17T18:04:37.142Z,24.00
2017-10-17T18:07:04.585Z,17.80
2017-10-17T18:09:32.025Z,19.23
2017-10-17T18:12:00.240Z,21.80
2017-10-17T18:14:27.668Z,21.90
2017-10-17T18:16:55.115Z,22.40
2017-10-17T18:19:23.332Z,18.93
2017-10-17T18:21:50.765Z,23.43
2017-10-17T18:24:18.208Z,26.77
2017-10-17T18:26:45.648Z,27.53
2017-10-17T18:29:13.851Z,33.73
2017-10-17T18:31:41.285Z,23.37
2017-10-17T18:34:09.498Z,24.97
2017-10-17T18:36:36.944Z,18.63
2017-10-17T18:39:04.393Z,25.70
2017-10-17T18:41:35.005Z,22.33
2017-10-17T18:44:03.215Z,21.70
2017-10-17T18:46:30.662Z,26.93
2017-10-17T18:48:58.118Z,21.73
2017-10-17T18:51:25.552Z,23.10
2017-10-17T18:53:53.761Z,24.30
2017-10-17T18:56:21.190Z,18.90
2017-10-17T18:58:48.653Z,19.57
2017-10-17T19:01:16.837Z,19.20
2017-10-17T19:03:44.329Z,21.90
2017-10-17T19:06:12.504Z,19.97
2017-10-17T19:08:39.938Z,24.27
2017-10-17T19:11:07.394Z,23.57
2017-10-17T19:13:34.830Z,16.50
2017-10-17T19:16:02.286Z,19.23
2017-10-17T19:18:29.717Z,18.93
2017-10-17T19:20:57.163Z,22.30
2017-10-17T19:23:24.596Z,18.43
2017-10-17T19:25:52.043Z,17.23
2017-10-17T19:28:19.476Z,18.33
2017-10-17T19:30:46.926Z,17.83
2017-10-17T19:33:14.360Z,25.53
2017-10-17T19:35:42.565Z,24.83
2017-10-17T19:38:10.002Z,18.53
2017-10-17T19:40:38.201Z,18.63
2017-10-17T19:43:05.642Z,21.60
2017-10-17T19:45:33.084Z,26.00
2017-10-17T19:48:01.285Z,18.70
2017-10-17T19:50:28.720Z,22.97
2017-10-17T19:52:56.942Z,23.83
2017-10-17T19:55:24.389Z,22.13
2017-10-17T19:57:51.829Z,22.23
2017-10-17T20:00:19.269Z,24.20
2017-10-17T20:02:47.471Z,23.33
2017-10-17T20:05:14.927Z,21.53
2017-10-17T20:07:42.366Z,24.37
2017-10-17T20:10:10.586Z,30.50
2017-10-17T20:12:38.022Z,29.97
2017-10-17T20:15:05.484Z,29.10
2017-10-17T20:17:32.913Z,29.93
2017-10-17T20:20:00.358Z,24.30
2017-10-17T20:22:28.566Z,30.03
2017-10-17T20:24:56.905Z,35.13
2017-10-17T20:27:25.112Z,30.43
2017-10-17T20:29:52.553Z,29.43
2017-10-17T20:32:19.989Z,30.23
2017-10-17T20:34:48.194Z,29.30
2017-10-17T20:37:15.629Z,25.47
2017-10-17T20:39:43.840Z,26.90
2017-10-17T20:42:11.284Z,30.70
2017-10-17T20:44:38.718Z,27.27
2017-10-17T20:47:06.913Z,30.00
2017-10-17T20:49:34.365Z,33.63
2017-10-17T20:52:01.801Z,23.00
2017-10-17T20:54:30.006Z,29.33
2017-10-17T20:56:57.449Z,37.83
2017-10-17T20:59:24.896Z,40.50
2017-10-17T21:01:53.102Z,32.23
2017-10-17T21:04:20.540Z,32.87
2017-10-17T21:06:47.978Z,34.80
2017-10-17T21:09:16.187Z,29.83
2017-10-17T21:11:43.618Z,37.00
2017-10-17T21:14:11.828Z,37.30
2017-10-17T21:16:39.264Z,32.40
2017-10-17T21:19:06.719Z,29.67
2017-10-17T21:21:34.150Z,21.70
2017-10-17T21:24:02.377Z,24.83
2017-10-17T21:26:29.798Z,31.23
2017-10-17T21:28:57.234Z,21.97
2017-10-17T21:31:24.680Z,25.67
2017-10-17T21:33:52.109Z,26.40
2017-10-17T21:36:19.557Z,28.37
2017-10-17T21:38:46.981Z,23.70
2017-10-17T21:41:14.431Z,24.53
2017-10-17T21:43:42.625Z,28.57
2017-10-17T21:46:10.080Z,22.50
2017-10-17T21:48:37.518Z,29.10
2017-10-17T21:51:05.727Z,22.40
2017-10-17T21:53:33.165Z,25.53
2017-10-17T21:56:00.611Z,20.30
2017-10-17T21:58:28.819Z,20.40
2017-10-17T22:01:01.989Z,26.90
2017-10-17T22:03:30.194Z,27.80
2017-10-17T22:05:57.636Z,24.40
2017-10-17T22:08:25.080Z,29.37
2017-10-17T22:10:52.533Z,37.23
2017-10-17T22:13:19.966Z,30.53
2017-10-17T22:15:48.185Z,35.57
2017-10-17T22:18:15.631Z,27.47
2017-10-17T22:20:43.067Z,30.50
2017-10-17T22:23:12.123Z,25.00
2017-10-17T22:25:39.549Z,34.20
2017-10-17T22:28:06.980Z,29.40
2017-10-17T22:30:34.464Z,27.37
2017-10-17T22:33:01.893Z,31.47
2017-10-17T22:35:29.333Z,27.37
2017-10-17T22:37:57.552Z,23.83
2017-10-17T22:40:24.993Z,32.03
2017-10-17T22:42:52.428Z,24.97
2017-10-17T22:45:20.639Z,29.90
2017-10-17T22:47:48.085Z,26.70
2017-10-17T22:50:15.522Z,28.97
2017-10-17T22:52:43.728Z,31.30
2017-10-17T22:55:11.169Z,31.83
2017-10-17T22:57:38.602Z,34.03
2017-10-17T23:00:06.817Z,28.67
2017-10-17T23:02:34.249Z,31.77
2017-10-17T23:05:01.700Z,38.93
2017-10-17T23:07:29.904Z,31.40
2017-10-17T23:09:57.349Z,39.03
2017-10-17T23:12:24.793Z,34.57
2017-10-17T23:14:52.239Z,24.20
2017-10-17T23:17:32.365Z,33.57
2017-10-17T23:20:11.799Z,24.47
2017-10-17T23:22:39.241Z,24.60
2017-10-17T23:25:06.685Z,27.00
2017-10-17T23:27:34.122Z,31.73
2017-10-17T23:30:01.566Z,29.60
2017-10-17T23:32:29.769Z,28.63
2017-10-17T23:34:57.659Z,34.47
2017-10-17T23:37:25.103Z,39.73
2017-10-17T23:39:52.536Z,25.13
2017-10-17T23:42:19.990Z,32.60
2017-10-17T23:44:47.442Z,25.37
2017-10-17T23:47:14.883Z,27.73
2017-10-17T23:49:43.081Z,28.73
2017-10-17T23:52:10.529Z,21.93
2017-10-17T23:54:37.969Z,19.77
2017-10-17T23:57:06.187Z,25.43
2017-10-17T23:59:33.625Z,25.70
